sensor_id;sensor_type;location;lat;lon;timestamp;P1;durP1;ratioP1;P2;durP2;ratioP2
72427;SDS011;60419;48.880;18.036;2022-07-05T00:02:28;6.18;;;4.25;;
72427;SDS011;60419;48.880;18.036;2022-07-05T00:05:13;4.68;;;2.90;;
72427;SDS011;60419;48.880;18.036;2022-07-05T00:07:59;5.13;;;3.50;;
72427;SDS011;60419;48.880;18.036;2022-07-05T00:10:44;7.65;;;3.72;;
72427;SDS011;60419;48.880;18.036;2022-07-05T00:13:29;7.97;;;3.80;;
72427;SDS011;60419;48.880;18.036;2022-07-05T00:16:15;7.72;;;4.18;;
72427;SDS011;60419;48.880;18.036;2022-07-05T00:19:00;9.18;;;3.78;;
72427;SDS011;60419;48.880;18.036;2022-07-05T00:21:46;6.70;;;3.47;;
72427;SDS011;60419;48.880;18.036;2022-07-05T00:24:31;6.43;;;3.33;;
72427;SDS011;60419;48.880;18.036;2022-07-05T00:27:17;5.68;;;3.33;;
72427;SDS011;60419;48.880;18.036;2022-07-05T00:30:03;5.63;;;4.20;;
72427;SDS011;60419;48.880;18.036;2022-07-05T00:32:50;8.57;;;3.42;;
72427;SDS011;60419;48.880;18.036;2022-07-05T00:35:35;6.53;;;3.75;;
72427;SDS011;60419;48.880;18.036;2022-07-05T00:38:21;6.18;;;4.05;;
72427;SDS011;60419;48.880;18.036;2022-07-05T00:41:07;8.15;;;3.90;;
72427;SDS011;60419;48.880;18.036;2022-07-05T00:43:53;5.95;;;3.38;;
72427;SDS011;60419;48.880;18.036;2022-07-05T00:46:41;6.18;;;3.80;;
72427;SDS011;60419;48.880;18.036;2022-07-05T00:49:28;6.60;;;3.42;;
72427;SDS011;60419;48.880;18.036;2022-07-05T00:52:14;6.28;;;3.70;;
72427;SDS011;60419;48.880;18.036;2022-07-05T00:55:00;6.13;;;3.50;;
72427;SDS011;60419;48.880;18.036;2022-07-05T00:57:45;6.00;;;3.25;;
72427;SDS011;60419;48.880;18.036;2022-07-05T01:00:31;5.32;;;3.47;;
72427;SDS011;60419;48.880;18.036;2022-07-05T01:03:16;6.22;;;3.70;;
72427;SDS011;60419;48.880;18.036;2022-07-05T01:06:02;6.95;;;3.85;;
72427;SDS011;60419;48.880;18.036;2022-07-05T01:08:51;6.75;;;3.70;;
72427;SDS011;60419;48.880;18.036;2022-07-05T01:11:37;5.07;;;3.58;;
72427;SDS011;60419;48.880;18.036;2022-07-05T01:14:22;5.22;;;3.55;;
72427;SDS011;60419;48.880;18.036;2022-07-05T01:17:08;5.22;;;3.60;;
72427;SDS011;60419;48.880;18.036;2022-07-05T01:19:54;7.10;;;3.67;;
72427;SDS011;60419;48.880;18.036;2022-07-05T01:22:56;6.30;;;3.80;;
72427;SDS011;60419;48.880;18.036;2022-07-05T01:25:44;5.95;;;3.75;;
72427;SDS011;60419;48.880;18.036;2022-07-05T01:28:32;7.82;;;3.67;;
72427;SDS011;60419;48.880;18.036;2022-07-05T01:31:17;6.53;;;3.72;;
72427;SDS011;60419;48.880;18.036;2022-07-05T01:34:03;5.63;;;3.63;;
72427;SDS011;60419;48.880;18.036;2022-07-05T01:36:49;8.05;;;3.95;;
72427;SDS011;60419;48.880;18.036;2022-07-05T01:39:35;7.72;;;3.95;;
72427;SDS011;60419;48.880;18.036;2022-07-05T01:42:21;6.82;;;4.60;;
72427;SDS011;60419;48.880;18.036;2022-07-05T01:45:06;6.38;;;3.90;;
72427;SDS011;60419;48.880;18.036;2022-07-05T01:47:52;6.53;;;4.10;;
72427;SDS011;60419;48.880;18.036;2022-07-05T01:50:53;5.90;;;3.78;;
72427;SDS011;60419;48.880;18.036;2022-07-05T01:53:43;7.53;;;5.05;;
72427;SDS011;60419;48.880;18.036;2022-07-05T01:56:30;7.45;;;5.05;;
72427;SDS011;60419;48.880;18.036;2022-07-05T01:59:15;6.35;;;4.50;;
72427;SDS011;60419;48.880;18.036;2022-07-05T02:02:01;6.68;;;4.38;;
72427;SDS011;60419;48.880;18.036;2022-07-05T02:04:47;6.38;;;4.38;;
72427;SDS011;60419;48.880;18.036;2022-07-05T02:07:32;6.47;;;3.97;;
72427;SDS011;60419;48.880;18.036;2022-07-05T02:10:18;4.32;;;3.40;;
72427;SDS011;60419;48.880;18.036;2022-07-05T02:13:04;5.57;;;3.88;;
72427;SDS011;60419;48.880;18.036;2022-07-05T02:15:49;5.85;;;3.30;;
72427;SDS011;60419;48.880;18.036;2022-07-05T02:18:35;5.75;;;3.42;;
72427;SDS011;60419;48.880;18.036;2022-07-05T02:21:20;5.10;;;3.42;;
72427;SDS011;60419;48.880;18.036;2022-07-05T02:24:06;5.13;;;3.33;;
72427;SDS011;60419;48.880;18.036;2022-07-05T02:26:52;5.72;;;3.70;;
72427;SDS011;60419;48.880;18.036;2022-07-05T02:29:37;6.43;;;3.65;;
72427;SDS011;60419;48.880;18.036;2022-07-05T02:32:23;5.35;;;3.97;;
72427;SDS011;60419;48.880;18.036;2022-07-05T02:35:09;5.88;;;3.53;;
72427;SDS011;60419;48.880;18.036;2022-07-05T02:37:55;5.43;;;4.15;;
72427;SDS011;60419;48.880;18.036;2022-07-05T02:40:41;7.95;;;3.70;;
72427;SDS011;60419;48.880;18.036;2022-07-05T02:43:26;7.05;;;3.92;;
72427;SDS011;60419;48.880;18.036;2022-07-05T02:46:12;7.30;;;4.18;;
72427;SDS011;60419;48.880;18.036;2022-07-05T02:48:57;6.95;;;3.85;;
72427;SDS011;60419;48.880;18.036;2022-07-05T02:51:42;5.97;;;4.25;;
72427;SDS011;60419;48.880;18.036;2022-07-05T02:54:28;7.60;;;4.97;;
72427;SDS011;60419;48.880;18.036;2022-07-05T02:57:13;8.57;;;4.80;;
72427;SDS011;60419;48.880;18.036;2022-07-05T02:59:58;8.63;;;5.10;;
72427;SDS011;60419;48.880;18.036;2022-07-05T03:02:44;6.93;;;4.68;;
72427;SDS011;60419;48.880;18.036;2022-07-05T03:05:29;7.18;;;4.88;;
72427;SDS011;60419;48.880;18.036;2022-07-05T03:08:15;6.18;;;4.63;;
72427;SDS011;60419;48.880;18.036;2022-07-05T03:11:00;7.28;;;4.47;;
72427;SDS011;60419;48.880;18.036;2022-07-05T03:13:46;7.78;;;5.07;;
72427;SDS011;60419;48.880;18.036;2022-07-05T03:16:32;6.82;;;5.05;;
72427;SDS011;60419;48.880;18.036;2022-07-05T03:19:18;5.53;;;4.55;;
72427;SDS011;60419;48.880;18.036;2022-07-05T03:22:03;7.60;;;4.38;;
72427;SDS011;60419;48.880;18.036;2022-07-05T03:24:49;7.65;;;4.63;;
72427;SDS011;60419;48.880;18.036;2022-07-05T03:27:34;6.72;;;4.45;;
72427;SDS011;60419;48.880;18.036;2022-07-05T03:30:20;6.70;;;3.97;;
72427;SDS011;60419;48.880;18.036;2022-07-05T03:33:05;7.18;;;4.50;;
72427;SDS011;60419;48.880;18.036;2022-07-05T03:35:51;6.25;;;4.80;;
72427;SDS011;60419;48.880;18.036;2022-07-05T03:38:36;7.57;;;4.80;;
72427;SDS011;60419;48.880;18.036;2022-07-05T03:41:22;6.90;;;4.85;;
72427;SDS011;60419;48.880;18.036;2022-07-05T03:44:07;7.40;;;5.00;;
72427;SDS011;60419;48.880;18.036;2022-07-05T03:46:52;5.80;;;4.78;;
72427;SDS011;60419;48.880;18.036;2022-07-05T03:49:38;7.03;;;4.40;;
72427;SDS011;60419;48.880;18.036;2022-07-05T03:52:23;7.93;;;4.70;;
72427;SDS011;60419;48.880;18.036;2022-07-05T03:55:09;6.50;;;4.90;;
72427;SDS011;60419;48.880;18.036;2022-07-05T03:57:54;8.45;;;5.38;;
72427;SDS011;60419;48.880;18.036;2022-07-05T04:00:40;7.22;;;5.13;;
72427;SDS011;60419;48.880;18.036;2022-07-05T04:03:26;6.28;;;4.97;;
72427;SDS011;60419;48.880;18.036;2022-07-05T04:06:11;7.15;;;5.10;;
72427;SDS011;60419;48.880;18.036;2022-07-05T04:08:57;7.60;;;5.10;;
72427;SDS011;60419;48.880;18.036;2022-07-05T04:11:42;6.72;;;5.18;;
72427;SDS011;60419;48.880;18.036;2022-07-05T04:14:28;6.45;;;4.72;;
72427;SDS011;60419;48.880;18.036;2022-07-05T04:17:14;7.10;;;4.85;;
72427;SDS011;60419;48.880;18.036;2022-07-05T04:19:59;9.57;;;5.03;;
72427;SDS011;60419;48.880;18.036;2022-07-05T04:22:45;7.30;;;4.82;;
72427;SDS011;60419;48.880;18.036;2022-07-05T04:25:30;6.82;;;5.25;;
72427;SDS011;60419;48.880;18.036;2022-07-05T04:28:16;6.75;;;4.90;;
72427;SDS011;60419;48.880;18.036;2022-07-05T04:31:01;7.90;;;4.93;;
72427;SDS011;60419;48.880;18.036;2022-07-05T04:33:46;5.22;;;3.72;;
72427;SDS011;60419;48.880;18.036;2022-07-05T04:36:32;5.82;;;3.60;;
72427;SDS011;60419;48.880;18.036;2022-07-05T04:39:17;8.65;;;4.47;;
72427;SDS011;60419;48.880;18.036;2022-07-05T04:42:05;4.97;;;3.40;;
72427;SDS011;60419;48.880;18.036;2022-07-05T04:44:50;7.78;;;4.50;;
72427;SDS011;60419;48.880;18.036;2022-07-05T04:47:36;5.97;;;3.30;;
72427;SDS011;60419;48.880;18.036;2022-07-05T04:50:21;5.20;;;3.35;;
72427;SDS011;60419;48.880;18.036;2022-07-05T04:53:07;5.20;;;3.35;;
72427;SDS011;60419;48.880;18.036;2022-07-05T04:55:52;5.75;;;3.60;;
72427;SDS011;60419;48.880;18.036;2022-07-05T04:58:38;4.65;;;3.45;;
72427;SDS011;60419;48.880;18.036;2022-07-05T05:01:23;7.00;;;4.03;;
72427;SDS011;60419;48.880;18.036;2022-07-05T05:04:08;6.55;;;4.10;;
72427;SDS011;60419;48.880;18.036;2022-07-05T05:06:54;8.05;;;4.50;;
72427;SDS011;60419;48.880;18.036;2022-07-05T05:09:39;8.95;;;4.40;;
72427;SDS011;60419;48.880;18.036;2022-07-05T05:12:25;6.25;;;4.18;;
72427;SDS011;60419;48.880;18.036;2022-07-05T05:15:11;9.20;;;4.72;;
72427;SDS011;60419;48.880;18.036;2022-07-05T05:17:56;7.45;;;5.10;;
72427;SDS011;60419;48.880;18.036;2022-07-05T05:20:41;8.02;;;6.00;;
72427;SDS011;60419;48.880;18.036;2022-07-05T05:23:27;8.07;;;5.80;;
72427;SDS011;60419;48.880;18.036;2022-07-05T05:26:12;8.13;;;6.07;;
72427;SDS011;60419;48.880;18.036;2022-07-05T05:28:58;7.30;;;4.95;;
72427;SDS011;60419;48.880;18.036;2022-07-05T05:31:43;7.65;;;5.57;;
72427;SDS011;60419;48.880;18.036;2022-07-05T05:34:28;8.00;;;5.63;;
72427;SDS011;60419;48.880;18.036;2022-07-05T05:37:14;6.82;;;4.78;;
72427;SDS011;60419;48.880;18.036;2022-07-05T05:39:59;8.13;;;5.03;;
72427;SDS011;60419;48.880;18.036;2022-07-05T05:42:45;7.53;;;5.25;;
72427;SDS011;60419;48.880;18.036;2022-07-05T05:45:30;7.55;;;4.70;;
72427;SDS011;60419;48.880;18.036;2022-07-05T05:48:16;8.02;;;5.43;;
72427;SDS011;60419;48.880;18.036;2022-07-05T05:51:02;9.13;;;5.25;;
72427;SDS011;60419;48.880;18.036;2022-07-05T05:53:47;9.75;;;5.35;;
72427;SDS011;60419;48.880;18.036;2022-07-05T05:56:32;8.35;;;5.18;;
72427;SDS011;60419;48.880;18.036;2022-07-05T05:59:18;6.47;;;5.45;;
72427;SDS011;60419;48.880;18.036;2022-07-05T06:02:03;7.53;;;4.90;;
72427;SDS011;60419;48.880;18.036;2022-07-05T06:04:49;7.63;;;5.38;;
72427;SDS011;60419;48.880;18.036;2022-07-05T06:07:48;6.05;;;4.60;;
72427;SDS011;60419;48.880;18.036;2022-07-05T06:10:35;8.70;;;4.80;;
72427;SDS011;60419;48.880;18.036;2022-07-05T06:13:21;10.13;;;5.57;;
72427;SDS011;60419;48.880;18.036;2022-07-05T06:16:06;9.07;;;5.07;;
72427;SDS011;60419;48.880;18.036;2022-07-05T06:18:52;8.00;;;4.63;;
72427;SDS011;60419;48.880;18.036;2022-07-05T06:21:37;7.28;;;4.50;;
72427;SDS011;60419;48.880;18.036;2022-07-05T06:24:23;8.63;;;5.00;;
72427;SDS011;60419;48.880;18.036;2022-07-05T06:27:08;7.03;;;4.60;;
72427;SDS011;60419;48.880;18.036;2022-07-05T06:29:53;7.32;;;3.97;;
72427;SDS011;60419;48.880;18.036;2022-07-05T06:32:39;5.75;;;3.90;;
72427;SDS011;60419;48.880;18.036;2022-07-05T06:35:24;6.32;;;4.10;;
72427;SDS011;60419;48.880;18.036;2022-07-05T06:38:10;8.52;;;3.88;;
72427;SDS011;60419;48.880;18.036;2022-07-05T06:40:56;6.38;;;4.10;;
72427;SDS011;60419;48.880;18.036;2022-07-05T06:43:42;7.00;;;4.40;;
72427;SDS011;60419;48.880;18.036;2022-07-05T06:46:27;8.00;;;5.00;;
72427;SDS011;60419;48.880;18.036;2022-07-05T06:49:12;5.95;;;4.65;;
72427;SDS011;60419;48.880;18.036;2022-07-05T06:51:58;7.15;;;4.50;;
72427;SDS011;60419;48.880;18.036;2022-07-05T06:54:43;7.03;;;4.85;;
72427;SDS011;60419;48.880;18.036;2022-07-05T06:57:28;6.00;;;4.38;;
72427;SDS011;60419;48.880;18.036;2022-07-05T07:00:14;6.00;;;4.30;;
72427;SDS011;60419;48.880;18.036;2022-07-05T07:03:00;5.25;;;4.05;;
72427;SDS011;60419;48.880;18.036;2022-07-05T07:05:46;8.20;;;4.90;;
72427;SDS011;60419;48.880;18.036;2022-07-05T07:08:31;6.60;;;4.70;;
72427;SDS011;60419;48.880;18.036;2022-07-05T07:11:35;8.45;;;4.93;;
72427;SDS011;60419;48.880;18.036;2022-07-05T07:14:20;6.47;;;4.40;;
72427;SDS011;60419;48.880;18.036;2022-07-05T07:17:06;5.18;;;4.32;;
72427;SDS011;60419;48.880;18.036;2022-07-05T07:19:51;6.68;;;4.90;;
72427;SDS011;60419;48.880;18.036;2022-07-05T07:22:37;6.00;;;4.45;;
72427;SDS011;60419;48.880;18.036;2022-07-05T07:25:22;7.20;;;5.13;;
72427;SDS011;60419;48.880;18.036;2022-07-05T07:28:10;6.25;;;4.88;;
72427;SDS011;60419;48.880;18.036;2022-07-05T07:30:56;5.97;;;4.75;;
72427;SDS011;60419;48.880;18.036;2022-07-05T07:33:41;7.30;;;4.45;;
72427;SDS011;60419;48.880;18.036;2022-07-05T07:36:27;7.65;;;5.20;;
72427;SDS011;60419;48.880;18.036;2022-07-05T07:39:12;7.13;;;5.13;;
72427;SDS011;60419;48.880;18.036;2022-07-05T07:41:57;7.20;;;4.75;;
72427;SDS011;60419;48.880;18.036;2022-07-05T07:44:43;6.55;;;4.85;;
72427;SDS011;60419;48.880;18.036;2022-07-05T07:47:29;8.00;;;5.60;;
72427;SDS011;60419;48.880;18.036;2022-07-05T07:50:18;7.68;;;5.55;;
72427;SDS011;60419;48.880;18.036;2022-07-05T07:53:03;7.18;;;5.78;;
72427;SDS011;60419;48.880;18.036;2022-07-05T07:55:49;6.63;;;4.82;;
72427;SDS011;60419;48.880;18.036;2022-07-05T07:58:34;10.73;;;5.95;;
72427;SDS011;60419;48.880;18.036;2022-07-05T08:01:20;12.05;;;7.32;;
72427;SDS011;60419;48.880;18.036;2022-07-05T08:04:05;8.18;;;6.53;;
72427;SDS011;60419;48.880;18.036;2022-07-05T08:06:51;9.20;;;6.63;;
72427;SDS011;60419;48.880;18.036;2022-07-05T08:09:36;10.27;;;7.60;;
72427;SDS011;60419;48.880;18.036;2022-07-05T08:12:21;8.43;;;7.30;;
72427;SDS011;60419;48.880;18.036;2022-07-05T08:15:07;10.40;;;8.00;;
72427;SDS011;60419;48.880;18.036;2022-07-05T08:17:53;17.90;;;10.25;;
72427;SDS011;60419;48.880;18.036;2022-07-05T08:20:56;11.25;;;7.90;;
72427;SDS011;60419;48.880;18.036;2022-07-05T08:24:01;25.92;;;12.32;;
72427;SDS011;60419;48.880;18.036;2022-07-05T08:26:48;11.75;;;7.90;;
72427;SDS011;60419;48.880;18.036;2022-07-05T08:29:34;17.88;;;9.68;;
72427;SDS011;60419;48.880;18.036;2022-07-05T08:32:21;26.65;;;12.80;;
72427;SDS011;60419;48.880;18.036;2022-07-05T08:35:06;19.73;;;11.88;;
72427;SDS011;60419;48.880;18.036;2022-07-05T08:37:52;8.82;;;6.95;;
72427;SDS011;60419;48.880;18.036;2022-07-05T08:40:38;10.50;;;6.93;;
72427;SDS011;60419;48.880;18.036;2022-07-05T08:43:28;13.90;;;7.95;;
72427;SDS011;60419;48.880;18.036;2022-07-05T08:46:15;10.60;;;7.00;;
72427;SDS011;60419;48.880;18.036;2022-07-05T08:49:02;9.13;;;6.93;;
72427;SDS011;60419;48.880;18.036;2022-07-05T08:51:52;15.70;;;7.13;;
72427;SDS011;60419;48.880;18.036;2022-07-05T08:54:39;9.43;;;7.30;;
72427;SDS011;60419;48.880;18.036;2022-07-05T08:57:24;12.77;;;8.35;;
72427;SDS011;60419;48.880;18.036;2022-07-05T09:00:10;15.07;;;9.63;;
72427;SDS011;60419;48.880;18.036;2022-07-05T09:02:56;11.57;;;7.68;;
72427;SDS011;60419;48.880;18.036;2022-07-05T09:05:43;26.38;;;11.90;;
72427;SDS011;60419;48.880;18.036;2022-07-05T09:08:30;11.20;;;7.40;;
72427;SDS011;60419;48.880;18.036;2022-07-05T09:11:18;14.70;;;7.75;;
72427;SDS011;60419;48.880;18.036;2022-07-05T09:14:24;13.88;;;7.65;;
72427;SDS011;60419;48.880;18.036;2022-07-05T09:17:10;22.73;;;12.65;;
72427;SDS011;60419;48.880;18.036;2022-07-05T09:20:06;15.52;;;8.50;;
72427;SDS011;60419;48.880;18.036;2022-07-05T09:22:57;12.15;;;8.27;;
72427;SDS011;60419;48.880;18.036;2022-07-05T09:25:42;18.92;;;9.80;;
72427;SDS011;60419;48.880;18.036;2022-07-05T09:28:28;9.73;;;7.18;;
72427;SDS011;60419;48.880;18.036;2022-07-05T09:31:25;16.25;;;9.63;;
72427;SDS011;60419;48.880;18.036;2022-07-05T09:34:13;11.07;;;8.57;;
72427;SDS011;60419;48.880;18.036;2022-07-05T09:37:00;13.48;;;9.48;;
72427;SDS011;60419;48.880;18.036;2022-07-05T09:39:47;13.77;;;8.50;;
72427;SDS011;60419;48.880;18.036;2022-07-05T09:42:32;9.50;;;7.93;;
72427;SDS011;60419;48.880;18.036;2022-07-05T09:45:21;10.77;;;7.60;;
72427;SDS011;60419;48.880;18.036;2022-07-05T09:48:09;20.63;;;10.68;;
72427;SDS011;60419;48.880;18.036;2022-07-05T09:51:08;11.80;;;8.90;;
72427;SDS011;60419;48.880;18.036;2022-07-05T09:53:56;19.45;;;10.73;;
72427;SDS011;60419;48.880;18.036;2022-07-05T09:56:47;8.98;;;7.57;;
72427;SDS011;60419;48.880;18.036;2022-07-05T09:59:33;18.05;;;10.23;;
72427;SDS011;60419;48.880;18.036;2022-07-05T10:02:33;14.32;;;7.85;;
72427;SDS011;60419;48.880;18.036;2022-07-05T10:05:20;11.68;;;8.38;;
72427;SDS011;60419;48.880;18.036;2022-07-05T10:08:07;11.57;;;8.38;;
72427;SDS011;60419;48.880;18.036;2022-07-05T10:10:52;10.38;;;8.48;;
72427;SDS011;60419;48.880;18.036;2022-07-05T10:13:38;13.38;;;10.20;;
72427;SDS011;60419;48.880;18.036;2022-07-05T10:16:25;11.25;;;10.05;;
72427;SDS011;60419;48.880;18.036;2022-07-05T10:19:14;11.90;;;10.30;;
72427;SDS011;60419;48.880;18.036;2022-07-05T10:22:02;11.27;;;8.57;;
72427;SDS011;60419;48.880;18.036;2022-07-05T10:24:49;10.75;;;8.75;;
72427;SDS011;60419;48.880;18.036;2022-07-05T10:27:36;8.55;;;7.50;;
72427;SDS011;60419;48.880;18.036;2022-07-05T10:30:22;10.55;;;7.80;;
72427;SDS011;60419;48.880;18.036;2022-07-05T10:33:08;11.50;;;8.50;;
72427;SDS011;60419;48.880;18.036;2022-07-05T10:35:53;11.30;;;10.13;;
72427;SDS011;60419;48.880;18.036;2022-07-05T10:38:41;11.07;;;8.13;;
72427;SDS011;60419;48.880;18.036;2022-07-05T10:41:28;14.43;;;9.60;;
72427;SDS011;60419;48.880;18.036;2022-07-05T10:44:26;10.82;;;8.32;;
72427;SDS011;60419;48.880;18.036;2022-07-05T10:47:20;11.55;;;8.75;;
72427;SDS011;60419;48.880;18.036;2022-07-05T10:50:05;11.25;;;9.23;;
72427;SDS011;60419;48.880;18.036;2022-07-05T10:53:03;12.77;;;9.60;;
72427;SDS011;60419;48.880;18.036;2022-07-05T10:58:49;13.75;;;10.25;;
72427;SDS011;60419;48.880;18.036;2022-07-05T11:04:35;10.63;;;8.30;;
72427;SDS011;60419;48.880;18.036;2022-07-05T11:13:58;12.00;;;9.95;;
72427;SDS011;60419;48.880;18.036;2022-07-05T11:16:45;13.90;;;8.95;;
72427;SDS011;60419;48.880;18.036;2022-07-05T11:19:31;15.30;;;10.05;;
72427;SDS011;60419;48.880;18.036;2022-07-05T11:22:16;16.17;;;9.10;;
72427;SDS011;60419;48.880;18.036;2022-07-05T11:25:02;9.98;;;8.68;;
72427;SDS011;60419;48.880;18.036;2022-07-05T11:27:59;13.30;;;9.30;;
72427;SDS011;60419;48.880;18.036;2022-07-05T11:30:58;11.57;;;8.73;;
72427;SDS011;60419;48.880;18.036;2022-07-05T11:33:44;14.15;;;9.38;;
72427;SDS011;60419;48.880;18.036;2022-07-05T11:36:29;11.75;;;9.40;;
72427;SDS011;60419;48.880;18.036;2022-07-05T11:39:17;12.88;;;10.70;;
72427;SDS011;60419;48.880;18.036;2022-07-05T11:42:04;14.48;;;11.25;;
72427;SDS011;60419;48.880;18.036;2022-07-05T11:44:50;11.75;;;10.40;;
72427;SDS011;60419;48.880;18.036;2022-07-05T11:47:36;12.68;;;10.85;;
72427;SDS011;60419;48.880;18.036;2022-07-05T11:50:32;9.30;;;7.68;;
72427;SDS011;60419;48.880;18.036;2022-07-05T11:53:25;10.25;;;8.45;;
72427;SDS011;60419;48.880;18.036;2022-07-05T11:56:14;8.05;;;6.88;;
72427;SDS011;60419;48.880;18.036;2022-07-05T11:58:59;10.15;;;7.35;;
72427;SDS011;60419;48.880;18.036;2022-07-05T12:02:00;10.75;;;8.82;;
72427;SDS011;60419;48.880;18.036;2022-07-05T12:04:53;12.52;;;10.13;;
72427;SDS011;60419;48.880;18.036;2022-07-05T12:07:39;11.25;;;9.07;;
72427;SDS011;60419;48.880;18.036;2022-07-05T12:10:25;11.07;;;8.63;;
72427;SDS011;60419;48.880;18.036;2022-07-05T12:13:29;10.55;;;8.65;;
72427;SDS011;60419;48.880;18.036;2022-07-05T12:16:15;11.77;;;9.57;;
72427;SDS011;60419;48.880;18.036;2022-07-05T12:19:01;13.25;;;8.93;;
72427;SDS011;60419;48.880;18.036;2022-07-05T12:21:54;10.88;;;9.25;;
72427;SDS011;60419;48.880;18.036;2022-07-05T12:24:39;10.27;;;8.32;;
72427;SDS011;60419;48.880;18.036;2022-07-05T12:27:26;11.13;;;9.18;;
72427;SDS011;60419;48.880;18.036;2022-07-05T12:30:12;14.80;;;10.07;;
72427;SDS011;60419;48.880;18.036;2022-07-05T12:33:01;11.45;;;9.05;;
72427;SDS011;60419;48.880;18.036;2022-07-05T12:35:50;10.90;;;8.02;;
72427;SDS011;60419;48.880;18.036;2022-07-05T12:38:36;11.32;;;8.60;;
72427;SDS011;60419;48.880;18.036;2022-07-05T12:41:21;11.30;;;7.75;;
72427;SDS011;60419;48.880;18.036;2022-07-05T12:44:10;11.43;;;8.65;;
72427;SDS011;60419;48.880;18.036;2022-07-05T12:47:02;10.05;;;8.57;;
72427;SDS011;60419;48.880;18.036;2022-07-05T12:49:52;11.60;;;10.10;;
72427;SDS011;60419;48.880;18.036;2022-07-05T12:56:10;9.65;;;7.47;;
72427;SDS011;60419;48.880;18.036;2022-07-05T12:59:16;10.02;;;8.68;;
72427;SDS011;60419;48.880;18.036;2022-07-05T13:02:03;9.32;;;8.27;;
72427;SDS011;60419;48.880;18.036;2022-07-05T13:04:52;11.45;;;8.95;;
72427;SDS011;60419;48.880;18.036;2022-07-05T13:07:44;11.30;;;9.20;;
72427;SDS011;60419;48.880;18.036;2022-07-05T13:10:30;10.77;;;8.45;;
72427;SDS011;60419;48.880;18.036;2022-07-05T13:13:18;11.10;;;8.93;;
72427;SDS011;60419;48.880;18.036;2022-07-05T13:16:05;11.00;;;9.63;;
72427;SDS011;60419;48.880;18.036;2022-07-05T13:18:50;11.65;;;9.43;;
72427;SDS011;60419;48.880;18.036;2022-07-05T13:21:36;12.05;;;9.68;;
72427;SDS011;60419;48.880;18.036;2022-07-05T13:24:21;11.93;;;8.50;;
72427;SDS011;60419;48.880;18.036;2022-07-05T13:27:07;9.35;;;8.30;;
72427;SDS011;60419;48.880;18.036;2022-07-05T13:29:54;8.63;;;7.65;;
72427;SDS011;60419;48.880;18.036;2022-07-05T13:32:40;9.98;;;8.10;;
72427;SDS011;60419;48.880;18.036;2022-07-05T13:35:25;8.90;;;6.93;;
72427;SDS011;60419;48.880;18.036;2022-07-05T13:38:10;7.10;;;5.88;;
72427;SDS011;60419;48.880;18.036;2022-07-05T13:40:56;8.90;;;6.45;;
72427;SDS011;60419;48.880;18.036;2022-07-05T13:43:41;7.68;;;6.70;;
72427;SDS011;60419;48.880;18.036;2022-07-05T13:46:29;8.45;;;6.90;;
72427;SDS011;60419;48.880;18.036;2022-07-05T13:49:14;9.20;;;7.60;;
72427;SDS011;60419;48.880;18.036;2022-07-05T13:52:00;9.25;;;8.15;;
72427;SDS011;60419;48.880;18.036;2022-07-05T13:54:46;9.05;;;7.40;;
72427;SDS011;60419;48.880;18.036;2022-07-05T13:57:32;9.18;;;7.30;;
72427;SDS011;60419;48.880;18.036;2022-07-05T14:00:17;9.57;;;8.18;;
72427;SDS011;60419;48.880;18.036;2022-07-05T14:03:03;10.38;;;7.40;;
72427;SDS011;60419;48.880;18.036;2022-07-05T14:05:48;9.40;;;7.13;;
72427;SDS011;60419;48.880;18.036;2022-07-05T14:08:34;10.35;;;7.63;;
72427;SDS011;60419;48.880;18.036;2022-07-05T14:11:19;10.02;;;7.05;;
72427;SDS011;60419;48.880;18.036;2022-07-05T14:14:05;8.25;;;6.15;;
72427;SDS011;60419;48.880;18.036;2022-07-05T14:16:50;7.32;;;5.93;;
72427;SDS011;60419;48.880;18.036;2022-07-05T14:19:36;7.47;;;5.60;;
72427;SDS011;60419;48.880;18.036;2022-07-05T14:22:21;7.55;;;5.28;;
72427;SDS011;60419;48.880;18.036;2022-07-05T14:25:07;7.43;;;5.80;;
72427;SDS011;60419;48.880;18.036;2022-07-05T14:27:53;6.40;;;5.20;;
72427;SDS011;60419;48.880;18.036;2022-07-05T14:30:39;8.40;;;5.40;;
72427;SDS011;60419;48.880;18.036;2022-07-05T14:33:26;7.93;;;5.40;;
72427;SDS011;60419;48.880;18.036;2022-07-05T14:36:11;7.72;;;5.78;;
72427;SDS011;60419;48.880;18.036;2022-07-05T14:38:57;6.82;;;5.10;;
72427;SDS011;60419;48.880;18.036;2022-07-05T14:41:44;7.43;;;4.80;;
72427;SDS011;60419;48.880;18.036;2022-07-05T14:44:29;5.85;;;4.88;;
72427;SDS011;60419;48.880;18.036;2022-07-05T14:47:16;5.82;;;4.63;;
72427;SDS011;60419;48.880;18.036;2022-07-05T14:50:01;6.40;;;4.72;;
72427;SDS011;60419;48.880;18.036;2022-07-05T14:52:47;6.40;;;4.70;;
72427;SDS011;60419;48.880;18.036;2022-07-05T14:55:33;5.45;;;4.20;;
72427;SDS011;60419;48.880;18.036;2022-07-05T14:58:20;7.00;;;4.18;;
72427;SDS011;60419;48.880;18.036;2022-07-05T15:01:06;5.30;;;3.58;;
72427;SDS011;60419;48.880;18.036;2022-07-05T15:03:51;7.18;;;4.30;;
72427;SDS011;60419;48.880;18.036;2022-07-05T15:06:38;13.30;;;6.78;;
72427;SDS011;60419;48.880;18.036;2022-07-05T15:09:25;7.30;;;4.60;;
72427;SDS011;60419;48.880;18.036;2022-07-05T15:12:11;6.82;;;4.55;;
72427;SDS011;60419;48.880;18.036;2022-07-05T15:14:56;6.55;;;5.00;;
72427;SDS011;60419;48.880;18.036;2022-07-05T15:17:42;7.07;;;3.60;;
72427;SDS011;60419;48.880;18.036;2022-07-05T15:20:28;5.97;;;3.92;;
72427;SDS011;60419;48.880;18.036;2022-07-05T15:23:15;8.70;;;4.60;;
72427;SDS011;60419;48.880;18.036;2022-07-05T15:26:00;7.90;;;4.43;;
72427;SDS011;60419;48.880;18.036;2022-07-05T15:28:46;4.82;;;3.88;;
72427;SDS011;60419;48.880;18.036;2022-07-05T15:31:32;7.20;;;4.68;;
72427;SDS011;60419;48.880;18.036;2022-07-05T15:34:19;5.88;;;4.43;;
72427;SDS011;60419;48.880;18.036;2022-07-05T15:37:04;9.30;;;5.03;;
72427;SDS011;60419;48.880;18.036;2022-07-05T15:39:50;7.32;;;3.97;;
72427;SDS011;60419;48.880;18.036;2022-07-05T15:42:35;8.13;;;3.92;;
72427;SDS011;60419;48.880;18.036;2022-07-05T15:45:21;5.03;;;3.60;;
72427;SDS011;60419;48.880;18.036;2022-07-05T15:48:06;4.07;;;3.20;;
72427;SDS011;60419;48.880;18.036;2022-07-05T15:50:51;3.42;;;2.67;;
72427;SDS011;60419;48.880;18.036;2022-07-05T15:53:38;3.80;;;2.80;;
72427;SDS011;60419;48.880;18.036;2022-07-05T15:56:24;4.22;;;2.40;;
72427;SDS011;60419;48.880;18.036;2022-07-05T15:59:09;4.53;;;2.50;;
72427;SDS011;60419;48.880;18.036;2022-07-05T16:01:55;2.38;;;1.70;;
72427;SDS011;60419;48.880;18.036;2022-07-05T16:04:40;3.40;;;1.60;;
72427;SDS011;60419;48.880;18.036;2022-07-05T16:07:25;3.40;;;1.60;;
72427;SDS011;60419;48.880;18.036;2022-07-05T16:10:11;2.95;;;1.60;;
72427;SDS011;60419;48.880;18.036;2022-07-05T16:12:56;3.55;;;1.40;;
72427;SDS011;60419;48.880;18.036;2022-07-05T16:15:42;2.35;;;1.40;;
72427;SDS011;60419;48.880;18.036;2022-07-05T16:18:46;2.05;;;1.23;;
72427;SDS011;60419;48.880;18.036;2022-07-05T16:21:33;4.32;;;1.50;;
72427;SDS011;60419;48.880;18.036;2022-07-05T16:24:19;5.15;;;1.58;;
72427;SDS011;60419;48.880;18.036;2022-07-05T16:27:05;2.38;;;1.10;;
72427;SDS011;60419;48.880;18.036;2022-07-05T16:29:52;1.45;;;0.90;;
72427;SDS011;60419;48.880;18.036;2022-07-05T16:32:37;2.85;;;1.20;;
72427;SDS011;60419;48.880;18.036;2022-07-05T16:35:23;1.35;;;1.00;;
72427;SDS011;60419;48.880;18.036;2022-07-05T16:38:08;1.30;;;0.90;;
72427;SDS011;60419;48.880;18.036;2022-07-05T16:40:53;2.55;;;0.88;;
72427;SDS011;60419;48.880;18.036;2022-07-05T16:43:40;1.40;;;0.90;;